Ana Sayfa
METAR-TAF:

METAR-TAF

Havaalanları :

Jayapura, Endonezya

Enlem: 02-34-37S, Boylam: 140-30-58E, yükseklik: 88 m

Güncel hava durumu gözlemi

Rapor saat 03:00 UTC de 25 dakika önce yapıldı.
Rüzgar batı/kuzeybatıdan 7 kt
Sıcaklık 33°C
Nem 63%
Basınç 1007 hPa
Görüş mesafesi 10 km veya daha fazla
1200 ft yükseklikte az bulutlu, Kümülonimbus.
1300 ft yükseklikte parçalı bulutlu
Civarda sağanaklar

METAR: WAJJ 070300Z 30007KT 9999 VCSH FEW012CB SCT013 33/25 Q1007 NOSIG

Saat: 10:25 (03:25 UTC)


TAF: eksik

4.000'den fazla havaalanı için hava durumu gözlemleri ve tahminleri (METAR ve TAF raporları).

Kullanılabilir istasyonlar harita üzerinde sarı ve kırmızı noktalarla gösterilir.

İstasyonun adını görmek için fareyi noktanın üzerinde gezdirin.

Sonrasında hava gözlem ve tahminlerini görmek için tıklayın.

Haritayı değiştirmek için: yaklaştırmak için siyah artı işaretli yeşil düğmeye ve uzaklaştırmak için de eksi işaretli düğmeye hızla tıklayın; bitişik haritalar için yeşil okları kullanın.


METAR-TAF: